sensor_id;sensor_type;location;lat;lon;timestamp;P1;durP1;ratioP1;P2;durP2;ratioP2
51883;SDS011;37915;53.254;6.598;2023-05-10T00:00:33;11.48;;;8.15;;
51883;SDS011;37915;53.254;6.598;2023-05-10T00:02:58;13.05;;;8.73;;
51883;SDS011;37915;53.254;6.598;2023-05-10T00:05:24;12.15;;;8.80;;
51883;SDS011;37915;53.254;6.598;2023-05-10T00:07:50;14.85;;;9.75;;
51883;SDS011;37915;53.254;6.598;2023-05-10T00:10:15;12.43;;;9.10;;
51883;SDS011;37915;53.254;6.598;2023-05-10T00:12:41;12.73;;;9.23;;
51883;SDS011;37915;53.254;6.598;2023-05-10T00:15:08;12.90;;;9.63;;
51883;SDS011;37915;53.254;6.598;2023-05-10T00:17:35;14.05;;;9.20;;
51883;SDS011;37915;53.254;6.598;2023-05-10T00:20:01;14.02;;;9.68;;
51883;SDS011;37915;53.254;6.598;2023-05-10T00:22:27;13.48;;;9.25;;
51883;SDS011;37915;53.254;6.598;2023-05-10T00:24:52;13.68;;;9.63;;
51883;SDS011;37915;53.254;6.598;2023-05-10T00:27:18;15.77;;;9.60;;
51883;SDS011;37915;53.254;6.598;2023-05-10T00:29:44;11.63;;;7.75;;
51883;SDS011;37915;53.254;6.598;2023-05-10T00:32:09;11.80;;;8.15;;
51883;SDS011;37915;53.254;6.598;2023-05-10T00:34:35;15.07;;;7.53;;
51883;SDS011;37915;53.254;6.598;2023-05-10T00:37:01;10.40;;;7.88;;
51883;SDS011;37915;53.254;6.598;2023-05-10T00:39:27;11.30;;;7.97;;
51883;SDS011;37915;53.254;6.598;2023-05-10T00:41:53;14.63;;;8.68;;
51883;SDS011;37915;53.254;6.598;2023-05-10T00:44:19;12.07;;;7.70;;
51883;SDS011;37915;53.254;6.598;2023-05-10T00:46:45;10.30;;;6.85;;
51883;SDS011;37915;53.254;6.598;2023-05-10T00:49:12;10.30;;;7.00;;
51883;SDS011;37915;53.254;6.598;2023-05-10T00:51:38;9.85;;;6.63;;
51883;SDS011;37915;53.254;6.598;2023-05-10T00:54:04;10.00;;;6.85;;
51883;SDS011;37915;53.254;6.598;2023-05-10T00:56:30;10.38;;;6.95;;
51883;SDS011;37915;53.254;6.598;2023-05-10T00:58:56;9.70;;;7.30;;
51883;SDS011;37915;53.254;6.598;2023-05-10T01:01:22;8.85;;;6.43;;
51883;SDS011;37915;53.254;6.598;2023-05-10T01:03:48;8.55;;;6.10;;
51883;SDS011;37915;53.254;6.598;2023-05-10T01:06:13;10.57;;;6.47;;
51883;SDS011;37915;53.254;6.598;2023-05-10T01:08:39;8.73;;;5.80;;
51883;SDS011;37915;53.254;6.598;2023-05-10T01:11:05;8.52;;;6.00;;
51883;SDS011;37915;53.254;6.598;2023-05-10T01:13:35;10.40;;;5.80;;
51883;SDS011;37915;53.254;6.598;2023-05-10T01:16:04;8.02;;;5.28;;
51883;SDS011;37915;53.254;6.598;2023-05-10T01:18:32;9.45;;;5.70;;
51883;SDS011;37915;53.254;6.598;2023-05-10T01:26:45;8.60;;;6.00;;
51883;SDS011;37915;53.254;6.598;2023-05-10T01:35:20;12.63;;;6.13;;
51883;SDS011;37915;53.254;6.598;2023-05-10T01:40:55;8.32;;;6.07;;
51883;SDS011;37915;53.254;6.598;2023-05-10T01:43:28;8.43;;;5.53;;
51883;SDS011;37915;53.254;6.598;2023-05-10T01:46:02;9.73;;;6.25;;
51883;SDS011;37915;53.254;6.598;2023-05-10T01:48:37;10.73;;;6.53;;
51883;SDS011;37915;53.254;6.598;2023-05-10T01:51:11;9.25;;;6.60;;
51883;SDS011;37915;53.254;6.598;2023-05-10T01:53:40;8.38;;;6.55;;
51883;SDS011;37915;53.254;6.598;2023-05-10T01:56:09;10.77;;;7.45;;
51883;SDS011;37915;53.254;6.598;2023-05-10T01:58:37;10.30;;;6.90;;
51883;SDS011;37915;53.254;6.598;2023-05-10T02:01:05;11.15;;;7.70;;
51883;SDS011;37915;53.254;6.598;2023-05-10T02:03:33;10.05;;;6.40;;
51883;SDS011;37915;53.254;6.598;2023-05-10T02:06:01;11.38;;;7.07;;
51883;SDS011;37915;53.254;6.598;2023-05-10T02:08:28;10.27;;;6.85;;
51883;SDS011;37915;53.254;6.598;2023-05-10T02:10:55;10.38;;;7.05;;
51883;SDS011;37915;53.254;6.598;2023-05-10T02:13:22;10.88;;;7.68;;
51883;SDS011;37915;53.254;6.598;2023-05-10T02:15:49;9.95;;;6.97;;
51883;SDS011;37915;53.254;6.598;2023-05-10T02:18:16;10.27;;;7.13;;
51883;SDS011;37915;53.254;6.598;2023-05-10T02:20:44;10.05;;;7.18;;
51883;SDS011;37915;53.254;6.598;2023-05-10T02:23:11;9.55;;;6.60;;
51883;SDS011;37915;53.254;6.598;2023-05-10T02:25:38;11.27;;;7.18;;
51883;SDS011;37915;53.254;6.598;2023-05-10T02:28:05;9.70;;;7.03;;
51883;SDS011;37915;53.254;6.598;2023-05-10T02:30:32;10.70;;;7.40;;
51883;SDS011;37915;53.254;6.598;2023-05-10T02:32:59;9.48;;;6.50;;
51883;SDS011;37915;53.254;6.598;2023-05-10T02:35:27;9.07;;;6.45;;
51883;SDS011;37915;53.254;6.598;2023-05-10T02:37:53;8.88;;;6.32;;
51883;SDS011;37915;53.254;6.598;2023-05-10T02:40:19;10.02;;;7.20;;
51883;SDS011;37915;53.254;6.598;2023-05-10T02:42:47;9.10;;;6.63;;
51883;SDS011;37915;53.254;6.598;2023-05-10T02:45:17;9.57;;;6.47;;
51883;SDS011;37915;53.254;6.598;2023-05-10T02:47:45;9.90;;;6.93;;
51883;SDS011;37915;53.254;6.598;2023-05-10T02:50:11;11.38;;;6.90;;
51883;SDS011;37915;53.254;6.598;2023-05-10T02:52:43;12.80;;;7.68;;
51883;SDS011;37915;53.254;6.598;2023-05-10T02:55:14;12.60;;;7.43;;
51883;SDS011;37915;53.254;6.598;2023-05-10T02:58:02;11.27;;;7.15;;
51883;SDS011;37915;53.254;6.598;2023-05-10T03:00:27;14.80;;;9.02;;
51883;SDS011;37915;53.254;6.598;2023-05-10T03:02:53;13.25;;;8.60;;
51883;SDS011;37915;53.254;6.598;2023-05-10T03:05:19;12.65;;;8.05;;
51883;SDS011;37915;53.254;6.598;2023-05-10T03:07:46;13.75;;;9.20;;
51883;SDS011;37915;53.254;6.598;2023-05-10T03:10:12;13.82;;;8.40;;
51883;SDS011;37915;53.254;6.598;2023-05-10T03:12:47;16.30;;;10.07;;
51883;SDS011;37915;53.254;6.598;2023-05-10T03:18:09;17.90;;;10.23;;
51883;SDS011;37915;53.254;6.598;2023-05-10T03:20:47;17.00;;;10.15;;
51883;SDS011;37915;53.254;6.598;2023-05-10T03:23:30;16.55;;;9.85;;
51883;SDS011;37915;53.254;6.598;2023-05-10T03:26:00;16.92;;;10.00;;
51883;SDS011;37915;53.254;6.598;2023-05-10T03:28:26;16.98;;;10.05;;
51883;SDS011;37915;53.254;6.598;2023-05-10T03:30:53;17.25;;;10.60;;
51883;SDS011;37915;53.254;6.598;2023-05-10T03:33:20;16.05;;;10.23;;
51883;SDS011;37915;53.254;6.598;2023-05-10T03:35:45;17.58;;;10.65;;
51883;SDS011;37915;53.254;6.598;2023-05-10T03:38:12;17.10;;;10.93;;
51883;SDS011;37915;53.254;6.598;2023-05-10T03:40:38;17.58;;;10.57;;
51883;SDS011;37915;53.254;6.598;2023-05-10T03:43:04;19.60;;;11.80;;
51883;SDS011;37915;53.254;6.598;2023-05-10T03:45:30;20.25;;;11.57;;
51883;SDS011;37915;53.254;6.598;2023-05-10T03:47:56;21.67;;;11.90;;
51883;SDS011;37915;53.254;6.598;2023-05-10T03:50:22;18.88;;;11.20;;
51883;SDS011;37915;53.254;6.598;2023-05-10T03:52:48;20.70;;;11.38;;
51883;SDS011;37915;53.254;6.598;2023-05-10T03:55:14;22.80;;;11.27;;
51883;SDS011;37915;53.254;6.598;2023-05-10T03:57:40;16.90;;;9.75;;
51883;SDS011;37915;53.254;6.598;2023-05-10T04:00:06;15.25;;;9.43;;
51883;SDS011;37915;53.254;6.598;2023-05-10T04:02:32;14.35;;;9.00;;
51883;SDS011;37915;53.254;6.598;2023-05-10T04:05:11;12.15;;;7.72;;
51883;SDS011;37915;53.254;6.598;2023-05-10T04:07:49;13.35;;;8.13;;
51883;SDS011;37915;53.254;6.598;2023-05-10T04:10:17;13.13;;;8.13;;
51883;SDS011;37915;53.254;6.598;2023-05-10T04:12:43;10.73;;;7.45;;
51883;SDS011;37915;53.254;6.598;2023-05-10T04:15:08;10.98;;;7.28;;
51883;SDS011;37915;53.254;6.598;2023-05-10T04:17:38;10.15;;;7.07;;
51883;SDS011;37915;53.254;6.598;2023-05-10T04:20:09;15.73;;;7.47;;
51883;SDS011;37915;53.254;6.598;2023-05-10T04:22:35;10.23;;;6.97;;
51883;SDS011;37915;53.254;6.598;2023-05-10T04:25:02;11.48;;;6.95;;
51883;SDS011;37915;53.254;6.598;2023-05-10T04:27:28;9.40;;;6.60;;
51883;SDS011;37915;53.254;6.598;2023-05-10T04:29:53;10.95;;;6.63;;
51883;SDS011;37915;53.254;6.598;2023-05-10T04:32:19;9.75;;;6.53;;
51883;SDS011;37915;53.254;6.598;2023-05-10T04:34:45;8.43;;;6.60;;
51883;SDS011;37915;53.254;6.598;2023-05-10T04:37:11;10.68;;;6.90;;
51883;SDS011;37915;53.254;6.598;2023-05-10T04:39:36;9.70;;;6.60;;
51883;SDS011;37915;53.254;6.598;2023-05-10T04:42:02;8.82;;;6.57;;
51883;SDS011;37915;53.254;6.598;2023-05-10T04:44:28;9.73;;;5.82;;
51883;SDS011;37915;53.254;6.598;2023-05-10T04:46:54;8.95;;;5.85;;
51883;SDS011;37915;53.254;6.598;2023-05-10T04:49:20;8.40;;;6.05;;
51883;SDS011;37915;53.254;6.598;2023-05-10T04:51:46;8.85;;;5.30;;
51883;SDS011;37915;53.254;6.598;2023-05-10T04:54:12;9.02;;;5.65;;
51883;SDS011;37915;53.254;6.598;2023-05-10T04:56:40;10.93;;;5.72;;
51883;SDS011;37915;53.254;6.598;2023-05-10T04:59:08;9.68;;;5.68;;
51883;SDS011;37915;53.254;6.598;2023-05-10T05:01:40;12.30;;;5.65;;
51883;SDS011;37915;53.254;6.598;2023-05-10T05:04:10;8.38;;;5.80;;
51883;SDS011;37915;53.254;6.598;2023-05-10T05:06:38;7.47;;;5.57;;
51883;SDS011;37915;53.254;6.598;2023-05-10T05:09:04;7.90;;;4.85;;
51883;SDS011;37915;53.254;6.598;2023-05-10T05:11:30;8.98;;;5.18;;
51883;SDS011;37915;53.254;6.598;2023-05-10T05:13:56;8.95;;;5.68;;
51883;SDS011;37915;53.254;6.598;2023-05-10T05:16:35;8.57;;;5.28;;
51883;SDS011;37915;53.254;6.598;2023-05-10T05:19:04;7.78;;;5.13;;
51883;SDS011;37915;53.254;6.598;2023-05-10T05:21:38;8.73;;;4.88;;
51883;SDS011;37915;53.254;6.598;2023-05-10T05:24:07;6.28;;;4.75;;
51883;SDS011;37915;53.254;6.598;2023-05-10T05:26:43;7.95;;;4.82;;
51883;SDS011;37915;53.254;6.598;2023-05-10T05:29:18;9.90;;;4.88;;
51883;SDS011;37915;53.254;6.598;2023-05-10T05:31:43;5.60;;;4.15;;
51883;SDS011;37915;53.254;6.598;2023-05-10T05:34:11;7.07;;;4.30;;
51883;SDS011;37915;53.254;6.598;2023-05-10T05:36:37;6.60;;;4.63;;
51883;SDS011;37915;53.254;6.598;2023-05-10T05:39:05;6.30;;;4.28;;
51883;SDS011;37915;53.254;6.598;2023-05-10T05:41:31;5.85;;;4.00;;
51883;SDS011;37915;53.254;6.598;2023-05-10T05:43:57;6.82;;;4.65;;
51883;SDS011;37915;53.254;6.598;2023-05-10T05:46:22;8.25;;;4.43;;
51883;SDS011;37915;53.254;6.598;2023-05-10T05:48:48;6.70;;;4.70;;
51883;SDS011;37915;53.254;6.598;2023-05-10T05:51:14;6.75;;;4.70;;
51883;SDS011;37915;53.254;6.598;2023-05-10T05:53:39;6.35;;;4.57;;
51883;SDS011;37915;53.254;6.598;2023-05-10T05:56:05;6.60;;;4.15;;
51883;SDS011;37915;53.254;6.598;2023-05-10T05:58:31;6.70;;;4.30;;
51883;SDS011;37915;53.254;6.598;2023-05-10T06:00:57;5.65;;;3.80;;
51883;SDS011;37915;53.254;6.598;2023-05-10T06:03:22;6.07;;;3.55;;
51883;SDS011;37915;53.254;6.598;2023-05-10T06:05:48;3.72;;;2.30;;
51883;SDS011;37915;53.254;6.598;2023-05-10T06:08:14;3.45;;;2.00;;
51883;SDS011;37915;53.254;6.598;2023-05-10T06:10:39;3.10;;;1.60;;
51883;SDS011;37915;53.254;6.598;2023-05-10T06:13:05;3.00;;;1.40;;
51883;SDS011;37915;53.254;6.598;2023-05-10T06:15:31;2.08;;;1.40;;
51883;SDS011;37915;53.254;6.598;2023-05-10T06:17:57;2.60;;;1.10;;
51883;SDS011;37915;53.254;6.598;2023-05-10T06:20:23;2.17;;;1.08;;
51883;SDS011;37915;53.254;6.598;2023-05-10T06:22:48;2.45;;;1.25;;
51883;SDS011;37915;53.254;6.598;2023-05-10T06:25:14;3.03;;;1.58;;
51883;SDS011;37915;53.254;6.598;2023-05-10T06:27:42;4.13;;;1.60;;
51883;SDS011;37915;53.254;6.598;2023-05-10T06:30:09;3.40;;;2.17;;
51883;SDS011;37915;53.254;6.598;2023-05-10T06:32:35;4.95;;;2.58;;
51883;SDS011;37915;53.254;6.598;2023-05-10T06:35:00;3.53;;;2.20;;
51883;SDS011;37915;53.254;6.598;2023-05-10T06:37:26;3.88;;;2.55;;
51883;SDS011;37915;53.254;6.598;2023-05-10T06:39:52;4.63;;;2.90;;
51883;SDS011;37915;53.254;6.598;2023-05-10T06:42:17;5.65;;;3.70;;
51883;SDS011;37915;53.254;6.598;2023-05-10T06:44:43;5.93;;;4.25;;
51883;SDS011;37915;53.254;6.598;2023-05-10T06:47:09;7.00;;;5.18;;
51883;SDS011;37915;53.254;6.598;2023-05-10T06:49:34;8.10;;;5.53;;
51883;SDS011;37915;53.254;6.598;2023-05-10T06:52:00;9.85;;;6.47;;
51883;SDS011;37915;53.254;6.598;2023-05-10T06:54:26;11.30;;;7.65;;
51883;SDS011;37915;53.254;6.598;2023-05-10T06:56:51;13.80;;;8.43;;
51883;SDS011;37915;53.254;6.598;2023-05-10T06:59:17;13.65;;;9.60;;
51883;SDS011;37915;53.254;6.598;2023-05-10T07:01:44;11.10;;;8.88;;
51883;SDS011;37915;53.254;6.598;2023-05-10T07:04:10;13.90;;;9.75;;
51883;SDS011;37915;53.254;6.598;2023-05-10T07:06:35;13.27;;;9.30;;
51883;SDS011;37915;53.254;6.598;2023-05-10T07:09:01;13.65;;;9.63;;
51883;SDS011;37915;53.254;6.598;2023-05-10T07:11:27;13.60;;;9.10;;
51883;SDS011;37915;53.254;6.598;2023-05-10T07:13:54;15.82;;;9.30;;
51883;SDS011;37915;53.254;6.598;2023-05-10T07:16:19;12.45;;;8.52;;
51883;SDS011;37915;53.254;6.598;2023-05-10T07:18:46;13.48;;;8.68;;
51883;SDS011;37915;53.254;6.598;2023-05-10T07:21:12;10.65;;;7.55;;
51883;SDS011;37915;53.254;6.598;2023-05-10T07:23:37;12.25;;;7.40;;
51883;SDS011;37915;53.254;6.598;2023-05-10T07:26:03;14.35;;;7.55;;
51883;SDS011;37915;53.254;6.598;2023-05-10T07:28:29;9.50;;;5.95;;
51883;SDS011;37915;53.254;6.598;2023-05-10T07:30:55;8.93;;;6.03;;
51883;SDS011;37915;53.254;6.598;2023-05-10T07:33:20;9.23;;;5.50;;
51883;SDS011;37915;53.254;6.598;2023-05-10T07:35:46;6.45;;;4.40;;
51883;SDS011;37915;53.254;6.598;2023-05-10T07:38:12;7.43;;;4.10;;
51883;SDS011;37915;53.254;6.598;2023-05-10T07:40:38;5.88;;;3.50;;
51883;SDS011;37915;53.254;6.598;2023-05-10T07:43:04;4.70;;;2.90;;
51883;SDS011;37915;53.254;6.598;2023-05-10T07:45:30;5.13;;;3.30;;
51883;SDS011;37915;53.254;6.598;2023-05-10T07:47:55;4.90;;;3.15;;
51883;SDS011;37915;53.254;6.598;2023-05-10T07:50:21;6.30;;;3.25;;
51883;SDS011;37915;53.254;6.598;2023-05-10T07:52:47;6.28;;;3.30;;
51883;SDS011;37915;53.254;6.598;2023-05-10T07:55:13;6.85;;;3.13;;
51883;SDS011;37915;53.254;6.598;2023-05-10T07:57:39;5.43;;;2.90;;
51883;SDS011;37915;53.254;6.598;2023-05-10T08:00:05;4.72;;;2.83;;
51883;SDS011;37915;53.254;6.598;2023-05-10T08:02:32;5.53;;;2.67;;
51883;SDS011;37915;53.254;6.598;2023-05-10T08:04:59;4.72;;;2.83;;
51883;SDS011;37915;53.254;6.598;2023-05-10T08:07:25;4.88;;;3.20;;
51883;SDS011;37915;53.254;6.598;2023-05-10T08:09:50;4.93;;;3.13;;
51883;SDS011;37915;53.254;6.598;2023-05-10T08:12:16;5.22;;;3.47;;
51883;SDS011;37915;53.254;6.598;2023-05-10T08:14:42;5.63;;;3.58;;
51883;SDS011;37915;53.254;6.598;2023-05-10T08:17:08;5.03;;;3.60;;
51883;SDS011;37915;53.254;6.598;2023-05-10T08:19:33;5.45;;;3.72;;
51883;SDS011;37915;53.254;6.598;2023-05-10T08:21:59;4.53;;;3.22;;
51883;SDS011;37915;53.254;6.598;2023-05-10T08:24:25;5.93;;;3.70;;
51883;SDS011;37915;53.254;6.598;2023-05-10T08:26:52;4.78;;;3.70;;
51883;SDS011;37915;53.254;6.598;2023-05-10T08:29:19;4.68;;;3.17;;
51883;SDS011;37915;53.254;6.598;2023-05-10T08:31:45;4.75;;;3.30;;
51883;SDS011;37915;53.254;6.598;2023-05-10T08:34:11;4.65;;;3.22;;
51883;SDS011;37915;53.254;6.598;2023-05-10T08:36:37;4.82;;;3.22;;
51883;SDS011;37915;53.254;6.598;2023-05-10T08:39:03;5.43;;;3.60;;
51883;SDS011;37915;53.254;6.598;2023-05-10T08:41:31;6.03;;;3.90;;
51883;SDS011;37915;53.254;6.598;2023-05-10T08:44:05;4.72;;;3.35;;
51883;SDS011;37915;53.254;6.598;2023-05-10T08:46:35;5.15;;;3.40;;
51883;SDS011;37915;53.254;6.598;2023-05-10T08:49:14;4.88;;;3.30;;
51883;SDS011;37915;53.254;6.598;2023-05-10T08:51:52;5.10;;;3.30;;
51883;SDS011;37915;53.254;6.598;2023-05-10T08:54:21;5.13;;;2.88;;
51883;SDS011;37915;53.254;6.598;2023-05-10T08:56:52;4.80;;;2.53;;
51883;SDS011;37915;53.254;6.598;2023-05-10T08:59:18;3.58;;;2.00;;
51883;SDS011;37915;53.254;6.598;2023-05-10T09:01:44;4.07;;;1.90;;
51883;SDS011;37915;53.254;6.598;2023-05-10T09:04:13;3.30;;;1.88;;
51883;SDS011;37915;53.254;6.598;2023-05-10T09:06:41;5.43;;;2.53;;
51883;SDS011;37915;53.254;6.598;2023-05-10T09:09:11;4.65;;;2.67;;
51883;SDS011;37915;53.254;6.598;2023-05-10T09:11:37;4.28;;;2.67;;
51883;SDS011;37915;53.254;6.598;2023-05-10T09:14:03;8.57;;;3.53;;
51883;SDS011;37915;53.254;6.598;2023-05-10T09:16:31;6.70;;;3.38;;
51883;SDS011;37915;53.254;6.598;2023-05-10T09:19:05;7.25;;;3.40;;
51883;SDS011;37915;53.254;6.598;2023-05-10T09:21:33;6.72;;;3.70;;
51883;SDS011;37915;53.254;6.598;2023-05-10T09:24:05;8.43;;;3.63;;
51883;SDS011;37915;53.254;6.598;2023-05-10T09:26:31;8.23;;;3.85;;
51883;SDS011;37915;53.254;6.598;2023-05-10T09:29:00;6.35;;;4.20;;
51883;SDS011;37915;53.254;6.598;2023-05-10T09:31:46;6.75;;;4.38;;
51883;SDS011;37915;53.254;6.598;2023-05-10T09:36:58;6.88;;;4.50;;
51883;SDS011;37915;53.254;6.598;2023-05-10T09:39:31;6.63;;;4.53;;
51883;SDS011;37915;53.254;6.598;2023-05-10T09:41:57;6.45;;;4.18;;
51883;SDS011;37915;53.254;6.598;2023-05-10T09:44:26;5.32;;;3.72;;
51883;SDS011;37915;53.254;6.598;2023-05-10T09:46:52;6.93;;;3.88;;
51883;SDS011;37915;53.254;6.598;2023-05-10T09:49:18;5.35;;;3.55;;
51883;SDS011;37915;53.254;6.598;2023-05-10T09:51:45;5.47;;;3.47;;
51883;SDS011;37915;53.254;6.598;2023-05-10T09:54:13;5.45;;;3.95;;
51883;SDS011;37915;53.254;6.598;2023-05-10T09:56:45;4.10;;;2.88;;
51883;SDS011;37915;53.254;6.598;2023-05-10T09:59:11;4.00;;;2.05;;
51883;SDS011;37915;53.254;6.598;2023-05-10T10:01:38;4.25;;;2.50;;
51883;SDS011;37915;53.254;6.598;2023-05-10T10:04:08;3.90;;;2.28;;
51883;SDS011;37915;53.254;6.598;2023-05-10T10:06:36;5.68;;;2.10;;
51883;SDS011;37915;53.254;6.598;2023-05-10T10:09:05;3.63;;;2.17;;
51883;SDS011;37915;53.254;6.598;2023-05-10T10:11:37;4.00;;;2.25;;
51883;SDS011;37915;53.254;6.598;2023-05-10T10:14:04;3.60;;;1.80;;
51883;SDS011;37915;53.254;6.598;2023-05-10T10:16:30;2.95;;;1.70;;
51883;SDS011;37915;53.254;6.598;2023-05-10T10:18:57;7.22;;;2.05;;
51883;SDS011;37915;53.254;6.598;2023-05-10T10:21:23;5.75;;;2.22;;
51883;SDS011;37915;53.254;6.598;2023-05-10T10:23:50;5.07;;;2.10;;
51883;SDS011;37915;53.254;6.598;2023-05-10T10:26:16;4.00;;;2.10;;
51883;SDS011;37915;53.254;6.598;2023-05-10T10:29:06;4.18;;;2.50;;
51883;SDS011;37915;53.254;6.598;2023-05-10T10:32:09;4.13;;;2.05;;
51883;SDS011;37915;53.254;6.598;2023-05-10T10:34:46;3.92;;;1.80;;
51883;SDS011;37915;53.254;6.598;2023-05-10T10:37:12;6.15;;;2.08;;
51883;SDS011;37915;53.254;6.598;2023-05-10T10:39:38;3.58;;;1.80;;
51883;SDS011;37915;53.254;6.598;2023-05-10T10:42:04;4.30;;;2.63;;
51883;SDS011;37915;53.254;6.598;2023-05-10T10:50:07;3.53;;;2.10;;
51883;SDS011;37915;53.254;6.598;2023-05-10T10:52:37;3.92;;;2.42;;
51883;SDS011;37915;53.254;6.598;2023-05-10T11:02:46;6.10;;;3.72;;
51883;SDS011;37915;53.254;6.598;2023-05-10T11:10:50;7.30;;;3.72;;
51883;SDS011;37915;53.254;6.598;2023-05-10T11:13:21;7.75;;;4.22;;
51883;SDS011;37915;53.254;6.598;2023-05-10T11:15:56;7.93;;;4.80;;
51883;SDS011;37915;53.254;6.598;2023-05-10T11:18:24;8.50;;;5.50;;
51883;SDS011;37915;53.254;6.598;2023-05-10T11:20:52;8.57;;;6.00;;
51883;SDS011;37915;53.254;6.598;2023-05-10T11:23:21;8.68;;;5.55;;
51883;SDS011;37915;53.254;6.598;2023-05-10T11:25:47;10.52;;;6.40;;
51883;SDS011;37915;53.254;6.598;2023-05-10T11:28:14;8.95;;;5.93;;
51883;SDS011;37915;53.254;6.598;2023-05-10T11:30:41;11.40;;;6.47;;
51883;SDS011;37915;53.254;6.598;2023-05-10T11:33:09;9.82;;;6.53;;
51883;SDS011;37915;53.254;6.598;2023-05-10T11:35:40;10.20;;;6.45;;
51883;SDS011;37915;53.254;6.598;2023-05-10T11:38:09;13.63;;;6.20;;
51883;SDS011;37915;53.254;6.598;2023-05-10T11:40:36;10.90;;;6.95;;
51883;SDS011;37915;53.254;6.598;2023-05-10T11:43:03;9.88;;;6.90;;
51883;SDS011;37915;53.254;6.598;2023-05-10T11:45:34;10.70;;;7.05;;
51883;SDS011;37915;53.254;6.598;2023-05-10T11:48:00;9.23;;;6.68;;
51883;SDS011;37915;53.254;6.598;2023-05-10T11:50:26;12.27;;;6.93;;
51883;SDS011;37915;53.254;6.598;2023-05-10T11:52:53;10.95;;;6.07;;
51883;SDS011;37915;53.254;6.598;2023-05-10T11:55:23;10.77;;;6.18;;
51883;SDS011;37915;53.254;6.598;2023-05-10T11:57:53;9.45;;;6.13;;
51883;SDS011;37915;53.254;6.598;2023-05-10T12:00:19;12.05;;;7.25;;
51883;SDS011;37915;53.254;6.598;2023-05-10T12:02:46;12.82;;;7.75;;
51883;SDS011;37915;53.254;6.598;2023-05-10T12:05:12;8.60;;;6.55;;
51883;SDS011;37915;53.254;6.598;2023-05-10T12:07:38;10.82;;;7.45;;
51883;SDS011;37915;53.254;6.598;2023-05-10T12:12:40;11.30;;;7.55;;
51883;SDS011;37915;53.254;6.598;2023-05-10T12:15:11;11.35;;;7.03;;
51883;SDS011;37915;53.254;6.598;2023-05-10T12:17:47;11.63;;;7.30;;
51883;SDS011;37915;53.254;6.598;2023-05-10T12:20:14;12.45;;;7.95;;
51883;SDS011;37915;53.254;6.598;2023-05-10T12:22:45;11.25;;;7.53;;
51883;SDS011;37915;53.254;6.598;2023-05-10T12:25:15;11.73;;;8.23;;
51883;SDS011;37915;53.254;6.598;2023-05-10T12:27:46;12.23;;;8.18;;
51883;SDS011;37915;53.254;6.598;2023-05-10T12:30:18;14.52;;;8.57;;
51883;SDS011;37915;53.254;6.598;2023-05-10T12:32:46;11.18;;;7.93;;
51883;SDS011;37915;53.254;6.598;2023-05-10T12:35:11;12.55;;;7.80;;
51883;SDS011;37915;53.254;6.598;2023-05-10T12:37:37;12.68;;;8.52;;
51883;SDS011;37915;53.254;6.598;2023-05-10T12:40:07;13.13;;;7.55;;
51883;SDS011;37915;53.254;6.598;2023-05-10T12:42:34;13.23;;;7.97;;
51883;SDS011;37915;53.254;6.598;2023-05-10T12:45:01;12.98;;;8.40;;
51883;SDS011;37915;53.254;6.598;2023-05-10T12:47:27;10.57;;;7.70;;
51883;SDS011;37915;53.254;6.598;2023-05-10T12:49:53;9.95;;;7.32;;
51883;SDS011;37915;53.254;6.598;2023-05-10T12:52:19;10.68;;;7.65;;
51883;SDS011;37915;53.254;6.598;2023-05-10T12:54:45;12.52;;;7.45;;
51883;SDS011;37915;53.254;6.598;2023-05-10T12:57:11;10.70;;;6.93;;
51883;SDS011;37915;53.254;6.598;2023-05-10T12:59:37;10.05;;;6.70;;
51883;SDS011;37915;53.254;6.598;2023-05-10T13:02:03;11.13;;;6.68;;
51883;SDS011;37915;53.254;6.598;2023-05-10T13:04:29;10.98;;;7.43;;
51883;SDS011;37915;53.254;6.598;2023-05-10T13:06:55;12.20;;;7.20;;
51883;SDS011;37915;53.254;6.598;2023-05-10T13:09:23;10.05;;;6.32;;
51883;SDS011;37915;53.254;6.598;2023-05-10T13:11:50;11.30;;;6.63;;
51883;SDS011;37915;53.254;6.598;2023-05-10T13:14:16;11.57;;;6.57;;
51883;SDS011;37915;53.254;6.598;2023-05-10T13:16:42;12.15;;;6.53;;
51883;SDS011;37915;53.254;6.598;2023-05-10T13:19:07;10.05;;;6.57;;
51883;SDS011;37915;53.254;6.598;2023-05-10T13:21:33;12.73;;;7.05;;
51883;SDS011;37915;53.254;6.598;2023-05-10T13:23:58;10.65;;;6.45;;
51883;SDS011;37915;53.254;6.598;2023-05-10T13:26:25;9.15;;;6.47;;
51883;SDS011;37915;53.254;6.598;2023-05-10T13:28:51;13.00;;;7.70;;
51883;SDS011;37915;53.254;6.598;2023-05-10T13:31:16;10.80;;;6.60;;
51883;SDS011;37915;53.254;6.598;2023-05-10T13:33:42;9.88;;;6.80;;
51883;SDS011;37915;53.254;6.598;2023-05-10T13:36:10;11.52;;;6.15;;
51883;SDS011;37915;53.254;6.598;2023-05-10T13:38:36;10.45;;;7.32;;
51883;SDS011;37915;53.254;6.598;2023-05-10T13:41:02;11.38;;;7.18;;
51883;SDS011;37915;53.254;6.598;2023-05-10T13:43:29;11.25;;;6.55;;
51883;SDS011;37915;53.254;6.598;2023-05-10T13:45:54;10.95;;;7.05;;
51883;SDS011;37915;53.254;6.598;2023-05-10T13:48:20;8.93;;;5.70;;
51883;SDS011;37915;53.254;6.598;2023-05-10T13:50:46;9.93;;;5.75;;
51883;SDS011;37915;53.254;6.598;2023-05-10T13:53:12;10.23;;;6.53;;
51883;SDS011;37915;53.254;6.598;2023-05-10T13:55:38;9.70;;;6.10;;
51883;SDS011;37915;53.254;6.598;2023-05-10T13:58:03;8.02;;;5.35;;
51883;SDS011;37915;53.254;6.598;2023-05-10T14:00:29;7.97;;;5.40;;
51883;SDS011;37915;53.254;6.598;2023-05-10T14:02:55;9.40;;;6.15;;
51883;SDS011;37915;53.254;6.598;2023-05-10T14:05:21;10.60;;;6.32;;
51883;SDS011;37915;53.254;6.598;2023-05-10T14:07:48;9.82;;;5.88;;
51883;SDS011;37915;53.254;6.598;2023-05-10T14:10:13;8.07;;;6.18;;
51883;SDS011;37915;53.254;6.598;2023-05-10T14:12:39;9.57;;;6.50;;
51883;SDS011;37915;53.254;6.598;2023-05-10T14:15:05;9.75;;;6.95;;
51883;SDS011;37915;53.254;6.598;2023-05-10T14:17:31;9.98;;;7.05;;
51883;SDS011;37915;53.254;6.598;2023-05-10T14:19:57;8.90;;;6.15;;
51883;SDS011;37915;53.254;6.598;2023-05-10T14:22:23;9.10;;;6.35;;
51883;SDS011;37915;53.254;6.598;2023-05-10T14:24:48;10.02;;;5.75;;
51883;SDS011;37915;53.254;6.598;2023-05-10T14:27:15;11.43;;;6.53;;
51883;SDS011;37915;53.254;6.598;2023-05-10T14:29:41;9.25;;;6.95;;
51883;SDS011;37915;53.254;6.598;2023-05-10T14:32:07;10.15;;;6.72;;
51883;SDS011;37915;53.254;6.598;2023-05-10T14:34:34;11.77;;;7.57;;
51883;SDS011;37915;53.254;6.598;2023-05-10T14:36:59;10.77;;;6.82;;
51883;SDS011;37915;53.254;6.598;2023-05-10T14:39:25;10.52;;;7.10;;
51883;SDS011;37915;53.254;6.598;2023-05-10T14:41:54;11.60;;;6.90;;
51883;SDS011;37915;53.254;6.598;2023-05-10T14:44:20;12.90;;;8.55;;
51883;SDS011;37915;53.254;6.598;2023-05-10T14:46:45;11.40;;;7.65;;
51883;SDS011;37915;53.254;6.598;2023-05-10T14:49:12;14.80;;;7.82;;
51883;SDS011;37915;53.254;6.598;2023-05-10T14:51:37;11.02;;;7.00;;
51883;SDS011;37915;53.254;6.598;2023-05-10T14:54:03;13.82;;;9.23;;
51883;SDS011;37915;53.254;6.598;2023-05-10T14:56:29;12.27;;;8.95;;
51883;SDS011;37915;53.254;6.598;2023-05-10T14:58:55;15.07;;;10.70;;
51883;SDS011;37915;53.254;6.598;2023-05-10T15:01:20;15.30;;;11.20;;
51883;SDS011;37915;53.254;6.598;2023-05-10T15:03:46;13.45;;;9.55;;
51883;SDS011;37915;53.254;6.598;2023-05-10T15:06:13;14.30;;;10.30;;
51883;SDS011;37915;53.254;6.598;2023-05-10T15:08:40;15.82;;;10.52;;
51883;SDS011;37915;53.254;6.598;2023-05-10T15:11:06;15.35;;;10.82;;
51883;SDS011;37915;53.254;6.598;2023-05-10T15:13:32;14.75;;;10.25;;
51883;SDS011;37915;53.254;6.598;2023-05-10T15:15:58;14.70;;;9.95;;
51883;SDS011;37915;53.254;6.598;2023-05-10T15:18:25;13.93;;;10.35;;
51883;SDS011;37915;53.254;6.598;2023-05-10T15:20:52;15.00;;;10.68;;
51883;SDS011;37915;53.254;6.598;2023-05-10T15:23:18;13.63;;;10.48;;